Time;durP1;ratioP1;P1;durP2;ratioP2;P2;SDS_P1;SDS_P2;PMS_P1;PMS_P2;Temp;Humidity;BMP_temperature;BMP_pressure;BME280_temperature;BME280_humidity;BME280_pressure;Samples;Min_cycle;Max_cycle;Signal;HPM_P1;HPM_P2
2024/01/03 00:01:42;;;;;;;9.15;0.60;;;20.80;44.40;;;;;;8322787;28;20393;-43
2024/01/03 00:05:44;;;;;;;5.60;0.60;;;20.80;44.30;;;;;;8323007;28;20029;-44
2024/01/03 00:09:45;;;;;;;4.50;0.52;;;20.80;44.30;;;;;;8321481;28;20049;-45
2024/01/03 00:14:00;;;;;;;1.02;0.50;;;20.80;44.20;;;;;;8322618;28;20041;-45
2024/01/03 00:18:04;;;;;;;0.90;0.45;;;20.80;44.10;;;;;;8322413;28;20025;-44
2024/01/03 00:22:07;;;;;;;3.05;0.70;;;20.80;44.10;;;;;;8322452;28;20029;-43
2024/01/03 00:26:08;;;;;;;2.47;0.70;;;20.90;44.10;;;;;;8323199;28;20057;-43
2024/01/03 00:30:10;;;;;;;2.25;0.60;;;20.80;44.50;;;;;;8321065;28;20022;-43
2024/01/03 00:34:13;;;;;;;3.70;0.50;;;20.70;45.30;;;;;;8323325;28;20076;-43
2024/01/03 00:38:14;;;;;;;3.95;0.60;;;20.60;46.10;;;;;;8328832;28;20060;-44
2024/01/03 00:42:15;;;;;;;5.07;0.75;;;20.70;45.20;;;;;;8328868;28;20049;-44
2024/01/03 00:46:16;;;;;;;5.35;0.85;;;20.70;45.00;;;;;;8328371;28;20063;-46
2024/01/03 00:50:17;;;;;;;2.80;0.57;;;20.70;45.10;;;;;;8328377;28;20477;-44
2024/01/03 00:54:19;;;;;;;3.97;0.88;;;20.70;44.90;;;;;;8325856;28;20021;-44
2024/01/03 00:58:20;;;;;;;5.55;0.60;;;20.80;44.80;;;;;;8325113;28;20083;-48
2024/01/03 01:02:21;;;;;;;8.70;1.17;;;20.80;44.30;;;;;;8325475;28;20116;-45
2024/01/03 01:06:21;;;;;;;17.95;3.72;;;20.70;44.40;;;;;;8325419;28;20041;-44
2024/01/03 01:10:22;;;;;;;23.65;5.82;;;20.80;44.60;;;;;;8324697;28;20408;-45
2024/01/03 01:14:23;;;;;;;19.48;5.40;;;20.80;46.00;;;;;;8325996;28;20033;-46
2024/01/03 01:18:23;;;;;;;18.73;5.30;;;20.80;45.90;;;;;;8325765;28;20076;-45
2024/01/03 01:22:25;;;;;;;15.55;3.50;;;20.80;46.60;;;;;;8326188;28;20491;-47
2024/01/03 01:26:26;;;;;;;12.70;3.38;;;20.60;47.10;;;;;;8325439;28;20025;-48
2024/01/03 01:30:27;;;;;;;10.93;2.80;;;20.60;46.80;;;;;;8325402;28;20045;-48
2024/01/03 01:34:27;;;;;;;13.35;3.45;;;20.60;46.20;;;;;;8325192;28;20083;-49
2024/01/03 01:38:28;;;;;;;14.70;3.88;;;20.70;45.90;;;;;;8325241;28;20464;-50
2024/01/03 01:42:30;;;;;;;7.82;2.40;;;20.70;45.60;;;;;;8325203;28;20112;-46
2024/01/03 01:46:32;;;;;;;9.48;2.63;;;20.70;45.20;;;;;;8324560;28;20083;-46
2024/01/03 01:50:34;;;;;;;7.85;2.17;;;20.70;45.10;;;;;;8325270;28;20563;-45
2024/01/03 01:54:36;;;;;;;12.15;2.47;;;20.70;44.90;;;;;;8323321;28;20061;-45
2024/01/03 01:58:37;;;;;;;;;;;20.70;44.80;;;;;;8325020;28;20041;-46
2024/01/03 02:02:40;;;;;;;8.85;2.15;;;20.70;44.70;;;;;;8324390;28;19916;-46
2024/01/03 02:06:41;;;;;;;9.25;2.25;;;20.70;44.60;;;;;;8324195;28;20568;-43
2024/01/03 02:10:42;;;;;;;;;;;20.70;45.00;;;;;;8324599;28;20494;-44
2024/01/03 02:14:43;;;;;;;10.43;2.77;;;20.50;46.30;;;;;;8323940;28;20380;-44
2024/01/03 02:18:44;;;;;;;9.73;2.78;;;20.40;46.00;;;;;;8328526;28;20036;-45
2024/01/03 02:22:45;;;;;;;7.57;2.03;;;20.40;45.80;;;;;;8329528;28;20049;-46
2024/01/03 02:26:45;;;;;;;9.90;3.67;;;20.40;45.40;;;;;;8329278;28;20045;-45
2024/01/03 02:30:48;;;;;;;7.78;1.98;;;20.40;45.10;;;;;;8329198;28;20030;-45
2024/01/03 02:34:48;;;;;;;11.82;2.55;;;20.50;44.80;;;;;;8329103;28;20033;-45
2024/01/03 02:38:52;;;;;;;9.18;2.25;;;20.40;45.30;;;;;;8329061;28;20070;-45
2024/01/03 02:42:53;;;;;;;8.38;2.15;;;20.30;45.30;;;;;;8328601;28;20111;-46
2024/01/03 02:46:57;;;;;;;7.13;1.60;;;20.30;45.00;;;;;;8327491;28;20030;-46
2024/01/03 02:50:57;;;;;;;9.23;1.80;;;20.30;44.70;;;;;;8328594;28;20025;-45
2024/01/03 02:54:58;;;;;;;10.30;1.70;;;20.30;44.40;;;;;;8328477;28;20022;-46
2024/01/03 02:58:59;;;;;;;6.00;2.10;;;20.30;44.30;;;;;;8327790;28;20037;-47
2024/01/03 03:03:00;;;;;;;5.50;1.70;;;20.30;44.10;;;;;;8328267;28;20112;-45
2024/01/03 03:07:01;;;;;;;4.93;1.60;;;20.30;44.00;;;;;;8327904;28;20128;-45
2024/01/03 03:11:03;;;;;;;5.35;1.65;;;20.30;43.90;;;;;;8328120;28;20036;-45
2024/01/03 03:15:05;;;;;;;4.38;1.58;;;20.30;43.80;;;;;;8327763;28;20038;-46
2024/01/03 03:19:06;;;;;;;5.72;1.38;;;20.30;43.80;;;;;;8326601;28;20037;-47
2024/01/03 03:23:06;;;;;;;4.25;1.42;;;20.20;44.60;;;;;;8327858;28;20108;-47
2024/01/03 03:27:07;;;;;;;5.68;1.77;;;20.10;45.50;;;;;;8327364;28;20025;-46
2024/01/03 03:31:08;;;;;;;6.55;1.88;;;20.00;45.30;;;;;;8326056;28;20499;-45
2024/01/03 03:35:08;;;;;;;3.55;1.45;;;20.10;44.80;;;;;;8327272;28;20469;-46
2024/01/03 03:39:09;;;;;;;5.60;2.40;;;20.10;44.50;;;;;;8327002;28;20095;-45
2024/01/03 03:43:10;;;;;;;6.18;2.08;;;20.10;44.20;;;;;;8327217;28;20099;-45
2024/01/03 03:47:10;;;;;;;3.95;1.60;;;20.20;44.10;;;;;;8326934;28;20048;-45
2024/01/03 03:51:11;;;;;;;6.57;1.33;;;20.20;43.90;;;;;;8326621;28;20501;-45
2024/01/03 03:55:13;;;;;;;4.75;1.45;;;20.20;43.80;;;;;;8326843;28;20036;-44
2024/01/03 03:59:14;;;;;;;6.28;1.50;;;20.20;43.70;;;;;;8326565;28;20027;-44
2024/01/03 04:03:15;;;;;;;6.32;1.70;;;20.20;43.60;;;;;;8326774;28;20040;-45
2024/01/03 04:07:15;;;;;;;4.10;1.58;;;20.20;43.50;;;;;;8326581;28;20061;-45
2024/01/03 04:11:16;;;;;;;4.60;1.30;;;20.10;44.40;;;;;;8333415;28;20033;-45
2024/01/03 04:15:17;;;;;;;4.25;1.23;;;20.00;45.20;;;;;;8333801;28;20475;-44
2024/01/03 04:19:17;;;;;;;2.88;1.17;;;20.00;45.00;;;;;;8332217;28;20544;-44
2024/01/03 04:23:18;;;;;;;5.10;1.45;;;20.00;44.60;;;;;;8333060;28;20057;-44
2024/01/03 04:27:19;;;;;;;3.85;1.30;;;20.00;44.20;;;;;;8332801;28;20111;-45
2024/01/03 04:31:20;;;;;;;3.85;1.55;;;20.10;44.00;;;;;;8332149;28;20450;-45
2024/01/03 04:35:20;;;;;;;2.78;1.10;;;20.10;43.80;;;;;;8332495;28;20502;-45
2024/01/03 04:39:21;;;;;;;4.03;1.30;;;20.10;43.70;;;;;;8332818;28;20041;-45
2024/01/03 04:43:22;;;;;;;3.92;1.42;;;20.10;43.60;;;;;;8332532;28;20022;-44
2024/01/03 04:47:22;;;;;;;4.15;1.42;;;20.10;43.40;;;;;;8332148;28;20047;-45
2024/01/03 04:51:23;;;;;;;3.05;1.20;;;20.10;43.30;;;;;;8331267;28;20034;-44
2024/01/03 04:55:25;;;;;;;3.40;1.42;;;20.10;43.20;;;;;;8330950;28;20042;-45
2024/01/03 04:59:25;;;;;;;;;;;20.00;44.20;;;;;;8332297;28;20036;-44
2024/01/03 05:03:26;;;;;;;4.30;1.10;;;19.90;45.00;;;;;;8332395;28;20003;-46
2024/01/03 05:07:27;;;;;;;1.95;1.02;;;19.90;44.70;;;;;;8331581;28;20503;-44
2024/01/03 05:11:29;;;;;;;3.75;1.40;;;19.90;44.30;;;;;;8331564;28;20030;-44
2024/01/03 05:15:29;;;;;;;3.33;1.20;;;20.00;44.00;;;;;;8331556;28;20029;-44
2024/01/03 05:19:30;;;;;;;1.88;0.98;;;20.00;43.70;;;;;;8330541;28;20044;-45
2024/01/03 05:23:31;;;;;;;4.68;1.40;;;20.10;43.50;;;;;;8331346;28;20029;-45
2024/01/03 05:27:31;;;;;;;2.58;1.33;;;20.10;43.30;;;;;;8331243;28;20399;-45
2024/01/03 05:31:32;;;;;;;3.17;1.08;;;20.20;43.10;;;;;;8330874;28;20479;-45
2024/01/03 05:35:33;;;;;;;2.45;1.20;;;20.20;43.00;;;;;;8329735;28;20034;-44
2024/01/03 05:39:33;;;;;;;3.17;1.40;;;20.20;42.80;;;;;;8330726;28;20035;-45
2024/01/03 05:43:34;;;;;;;3.30;1.38;;;20.20;42.80;;;;;;8330547;28;20052;-45
2024/01/03 05:47:35;;;;;;;2.80;1.10;;;20.20;43.90;;;;;;8330749;28;20390;-45
2024/01/03 05:51:35;;;;;;;1.35;0.85;;;20.00;44.60;;;;;;8330557;28;20442;-45
2024/01/03 05:55:36;;;;;;;3.03;1.10;;;20.00;44.10;;;;;;8330429;28;20056;-44
2024/01/03 05:59:39;;;;;;;2.58;1.27;;;20.10;43.80;;;;;;8330201;28;20040;-43
2024/01/03 06:03:40;;;;;;;2.25;1.08;;;20.20;43.40;;;;;;8330118;28;20034;-44
2024/01/03 06:07:41;;;;;;;1.67;1.00;;;20.20;43.20;;;;;;8329993;28;20108;-44
2024/01/03 06:11:42;;;;;;;2.15;0.90;;;20.20;43.00;;;;;;8329905;28;20037;-44
2024/01/03 06:15:43;;;;;;;2.60;0.90;;;20.20;42.80;;;;;;8329701;28;20607;-44
2024/01/03 06:19:44;;;;;;;3.55;0.90;;;20.20;42.70;;;;;;8329821;28;20021;-44
2024/01/03 06:23:45;;;;;;;1.77;0.90;;;20.30;42.60;;;;;;8329376;28;20065;-43
2024/01/03 06:27:46;;;;;;;2.10;0.90;;;20.20;42.50;;;;;;8329400;28;20041;-45
2024/01/03 06:31:46;;;;;;;1.95;1.00;;;20.30;42.70;;;;;;8328337;28;20479;-44
2024/01/03 06:35:47;;;;;;;1.95;1.05;;;20.10;43.70;;;;;;8328961;28;20034;-45
2024/01/03 06:39:47;;;;;;;1.67;1.13;;;20.00;44.40;;;;;;8329048;28;20424;-44
2024/01/03 06:43:48;;;;;;;1.65;0.80;;;20.00;43.80;;;;;;8329004;28;20030;-44
2024/01/03 06:47:49;;;;;;;1.73;0.90;;;20.10;43.50;;;;;;8329013;28;20061;-44
2024/01/03 06:51:49;;;;;;;2.25;0.85;;;20.20;43.10;;;;;;8328708;28;20044;-44
2024/01/03 06:55:50;;;;;;;2.33;1.10;;;20.20;42.90;;;;;;8328714;28;20499;-45
2024/01/03 06:59:51;;;;;;;2.45;0.88;;;20.20;42.70;;;;;;8328738;28;20084;-45
2024/01/03 07:03:51;;;;;;;2.35;0.93;;;20.30;42.60;;;;;;8328066;28;20056;-44
2024/01/03 07:07:52;;;;;;;3.72;0.90;;;20.30;42.50;;;;;;8328022;28;20049;-44
2024/01/03 07:11:53;;;;;;;1.58;0.98;;;20.30;42.40;;;;;;8328053;28;20038;-45
2024/01/03 07:15:54;;;;;;;2.03;1.00;;;20.30;42.30;;;;;;8327903;28;20108;-45
2024/01/03 07:19:55;;;;;;;1.35;0.88;;;20.30;42.50;;;;;;8327828;28;20032;-45
2024/01/03 07:23:55;;;;;;;1.50;0.80;;;20.20;43.50;;;;;;8326291;28;20042;-44
2024/01/03 07:27:56;;;;;;;1.08;0.68;;;20.00;44.00;;;;;;8327649;28;20038;-45
2024/01/03 07:31:57;;;;;;;1.10;0.60;;;20.10;43.70;;;;;;8327452;28;20391;-44
2024/01/03 07:35:57;;;;;;;1.50;0.60;;;20.20;43.30;;;;;;8327223;28;20041;-44
2024/01/03 07:39:58;;;;;;;3.13;1.27;;;20.20;42.90;;;;;;8327275;28;20040;-46
2024/01/03 07:43:59;;;;;;;2.30;0.93;;;20.20;42.70;;;;;;8326904;28;20034;-46
2024/01/03 07:47:59;;;;;;;1.77;0.80;;;20.20;42.60;;;;;;8327053;28;20477;-44
2024/01/03 07:52:00;;;;;;;0.90;0.82;;;20.20;42.40;;;;;;8327238;28;20598;-45
2024/01/03 07:56:01;;;;;;;1.88;0.93;;;20.20;42.30;;;;;;8326877;28;20168;-45
2024/01/03 08:00:02;;;;;;;0.80;0.68;;;20.30;42.30;;;;;;8326850;28;20431;-44
2024/01/03 08:04:04;;;;;;;1.40;0.70;;;20.20;42.20;;;;;;8326863;28;20583;-45
2024/01/03 08:08:05;;;;;;;2.28;0.90;;;20.20;42.40;;;;;;8327224;28;20057;-46
2024/01/03 08:12:08;;;;;;;1.23;0.93;;;20.20;43.50;;;;;;8326550;28;20037;-47
2024/01/03 08:16:10;;;;;;;0.90;0.68;;;19.90;43.90;;;;;;8326379;28;20030;-45
2024/01/03 08:20:12;;;;;;;0.93;0.65;;;20.00;43.50;;;;;;8326560;28;20049;-45
2024/01/03 08:24:12;;;;;;;0.98;0.77;;;20.10;43.70;;;;;;8326438;28;20033;-45
2024/01/03 08:28:13;;;;;;;0.52;0.40;;;20.20;42.90;;;;;;8326261;28;20506;-44
2024/01/03 08:32:14;;;;;;;1.50;0.93;;;20.20;42.60;;;;;;8326517;28;20084;-45
2024/01/03 08:36:15;;;;;;;1.73;0.80;;;20.20;42.40;;;;;;8326136;28;20025;-46
2024/01/03 08:40:15;;;;;;;;;;;20.30;42.30;;;;;;8326666;28;20361;-44
2024/01/03 08:44:16;;;;;;;1.47;0.90;;;20.30;42.20;;;;;;8327158;28;19996;-46
2024/01/03 08:48:17;;;;;;;1.00;0.63;;;20.30;42.10;;;;;;8326659;28;20040;-47
2024/01/03 08:52:17;;;;;;;0.80;0.50;;;20.30;42.00;;;;;;8326070;28;20065;-45
2024/01/03 08:56:18;;;;;;;1.08;0.73;;;20.20;42.30;;;;;;8328488;28;20065;-46
2024/01/03 09:00:19;;;;;;;0.70;0.63;;;20.10;43.40;;;;;;8332234;28;20128;-46
2024/01/03 09:04:20;;;;;;;0.77;0.60;;;19.90;43.70;;;;;;8332225;28;20117;-45
2024/01/03 09:08:20;;;;;;;0.93;0.70;;;20.00;43.30;;;;;;8331738;28;20062;-48
2024/01/03 09:12:24;;;;;;;1.65;1.10;;;20.10;42.90;;;;;;8331826;28;20029;-47
2024/01/03 09:16:30;;;;;;;1.17;0.82;;;20.10;42.60;;;;;;8331493;28;20090;-46
2024/01/03 09:20:31;;;;;;;2.85;0.77;;;20.20;43.00;;;;;;8331545;28;20034;-44
2024/01/03 09:24:31;;;;;;;1.30;0.70;;;20.20;42.30;;;;;;8331594;28;20053;-44
2024/01/03 09:28:34;;;;;;;1.20;1.02;;;20.20;42.20;;;;;;8331378;28;20754;-44
2024/01/03 09:32:35;;;;;;;1.75;0.63;;;20.20;42.10;;;;;;8331124;28;20033;-43
2024/01/03 09:36:36;;;;;;;1.75;0.80;;;20.20;42.00;;;;;;8331113;28;20030;-43
2024/01/03 09:40:36;;;;;;;1.48;0.93;;;20.20;41.90;;;;;;8330948;28;20065;-44
2024/01/03 09:44:37;;;;;;;0.73;0.60;;;20.20;42.30;;;;;;8330690;28;20038;-44
2024/01/03 09:48:42;;;;;;;1.15;0.70;;;20.00;43.40;;;;;;8330908;28;20092;-43
2024/01/03 09:52:44;;;;;;;2.33;0.68;;;19.90;43.70;;;;;;8330756;28;20449;-44
2024/01/03 09:56:47;;;;;;;1.25;0.50;;;20.00;43.20;;;;;;8329066;28;20053;-43
2024/01/03 10:00:48;;;;;;;1.08;0.70;;;20.10;42.80;;;;;;8330318;28;20025;-44
2024/01/03 10:04:48;;;;;;;0.82;0.50;;;20.10;42.60;;;;;;8328934;28;20033;-44
2024/01/03 10:09:00;;;;;;;1.05;0.57;;;20.10;42.30;;;;;;8329792;28;20114;-45
2024/01/03 10:13:18;;;;;;;0.82;0.50;;;20.20;42.20;;;;;;8330162;28;20044;-43
2024/01/03 10:17:21;;;;;;;0.73;0.57;;;20.20;42.10;;;;;;8329747;28;20082;-43
2024/01/03 10:21:21;;;;;;;0.93;0.50;;;20.20;41.90;;;;;;8329657;28;20087;-43
2024/01/03 10:25:22;;;;;;;1.90;0.63;;;20.20;41.90;;;;;;8329334;28;20037;-43
2024/01/03 10:29:23;;;;;;;0.65;0.50;;;20.20;41.80;;;;;;8329395;28;20364;-44
2024/01/03 10:33:24;;;;;;;0.93;0.60;;;20.10;42.50;;;;;;8329657;28;20087;-45
2024/01/03 10:37:25;;;;;;;;;;;19.90;43.50;;;;;;8329268;28;20029;-44
2024/01/03 10:41:26;;;;;;;1.05;0.70;;;19.90;43.50;;;;;;8329417;28;19916;-44
2024/01/03 10:45:27;;;;;;;0.98;0.57;;;20.00;43.00;;;;;;8329035;28;20201;-45
2024/01/03 10:49:28;;;;;;;2.35;0.68;;;20.10;42.60;;;;;;8328501;28;20043;-44
2024/01/03 10:53:40;;;;;;;0.98;0.60;;;20.10;42.40;;;;;;8328764;28;20553;-44
2024/01/03 10:57:58;;;;;;;1.10;0.50;;;20.20;42.20;;;;;;8328320;28;20025;-43
2024/01/03 11:02:07;;;;;;;1.75;0.90;;;20.10;42.00;;;;;;8328234;28;20395;-44
2024/01/03 11:06:26;;;;;;;1.48;0.52;;;20.10;41.90;;;;;;8328242;28;20499;-42
2024/01/03 11:10:50;;;;;;;0.70;0.50;;;20.10;41.80;;;;;;8327956;28;20507;-42
2024/01/03 11:14:51;;;;;;;1.00;0.50;;;20.10;41.70;;;;;;8327968;28;20025;-43
2024/01/03 11:18:51;;;;;;;0.80;0.50;;;20.10;41.80;;;;;;8326118;28;20176;-44
2024/01/03 11:22:56;;;;;;;1.17;0.52;;;20.00;42.80;;;;;;8327762;28;20406;-44
2024/01/03 11:27:03;;;;;;;0.60;0.60;;;19.90;43.70;;;;;;8327713;28;20083;-43
2024/01/03 11:31:06;;;;;;;0.70;0.50;;;19.90;43.20;;;;;;8326769;28;20369;-44
2024/01/03 11:35:08;;;;;;;0.90;0.40;;;20.00;42.70;;;;;;8325980;28;20025;-44
2024/01/03 11:39:35;;;;;;;0.73;0.52;;;20.00;42.40;;;;;;8327434;28;20037;-46
2024/01/03 11:43:36;;;;;;;0.43;0.40;;;20.10;42.20;;;;;;8327383;28;20078;-45
2024/01/03 11:47:40;;;;;;;0.93;0.40;;;20.10;42.00;;;;;;8326001;28;20033;-46
2024/01/03 11:51:41;;;;;;;0.60;0.50;;;20.10;41.90;;;;;;8326978;28;20407;-45
2024/01/03 11:55:51;;;;;;;0.60;0.50;;;20.10;41.80;;;;;;8326730;28;20056;-45
2024/01/03 12:00:01;;;;;;;1.65;0.70;;;20.10;41.70;;;;;;8326995;28;20067;-46
2024/01/03 12:04:13;;;;;;;0.80;0.60;;;20.10;41.70;;;;;;8326853;28;20033;-45
2024/01/03 12:08:14;;;;;;;0.85;0.55;;;20.10;42.10;;;;;;8326671;28;20074;-46
2024/01/03 12:12:14;;;;;;;1.65;0.50;;;19.90;43.10;;;;;;8325596;28;20095;-45
2024/01/03 12:16:15;;;;;;;0.90;0.52;;;19.80;43.30;;;;;;8326368;28;20044;-45
2024/01/03 12:20:19;;;;;;;0.80;0.40;;;19.90;42.90;;;;;;8327127;28;20033;-46
2024/01/03 12:24:20;;;;;;;1.23;0.65;;;20.00;42.60;;;;;;8326522;28;20036;-45
2024/01/03 12:28:22;;;;;;;1.00;0.50;;;20.10;42.30;;;;;;8326344;28;20092;-46
2024/01/03 12:32:22;;;;;;;0.70;0.40;;;20.10;42.10;;;;;;8331151;28;20071;-45
2024/01/03 12:36:23;;;;;;;0.88;0.45;;;20.10;41.90;;;;;;8332824;28;20099;-47
2024/01/03 12:40:24;;;;;;;0.50;0.43;;;20.10;41.80;;;;;;8332531;28;20026;-44
2024/01/03 12:44:24;;;;;;;0.68;0.45;;;20.10;41.70;;;;;;8332635;28;20242;-45
2024/01/03 12:48:25;;;;;;;0.57;0.50;;;20.10;41.60;;;;;;8332814;28;20037;-47
2024/01/03 12:52:30;;;;;;;0.85;0.55;;;20.10;41.50;;;;;;8332272;28;20037;-45
2024/01/03 12:56:31;;;;;;;0.98;0.50;;;20.10;42.00;;;;;;8332292;28;20095;-46
2024/01/03 13:00:32;;;;;;;0.60;0.40;;;19.90;43.10;;;;;;8332078;28;20087;-46
2024/01/03 13:04:34;;;;;;;0.50;0.30;;;19.80;43.30;;;;;;8332532;28;20022;-46
2024/01/03 13:08:35;;;;;;;1.30;0.43;;;19.90;42.70;;;;;;8331899;28;20053;-45
2024/01/03 13:12:36;;;;;;;0.30;0.30;;;20.00;42.40;;;;;;8331116;28;20037;-45
2024/01/03 13:16:40;;;;;;;0.50;0.50;;;20.00;42.40;;;;;;8331624;28;20588;-45
2024/01/03 13:20:41;;;;;;;0.47;0.25;;;20.00;42.00;;;;;;8331570;28;20037;-45
2024/01/03 13:24:42;;;;;;;0.35;0.30;;;20.10;41.90;;;;;;8331471;28;20479;-45
2024/01/03 13:28:43;;;;;;;0.60;0.40;;;20.10;41.70;;;;;;8331278;28;20117;-44
2024/01/03 13:32:44;;;;;;;0.30;0.30;;;20.10;41.60;;;;;;8331321;28;20038;-45
2024/01/03 13:36:44;;;;;;;0.40;0.40;;;20.10;41.60;;;;;;8330936;28;20115;-45
2024/01/03 13:40:46;;;;;;;0.68;0.47;;;20.10;41.50;;;;;;8330498;28;20052;-45
2024/01/03 13:44:47;;;;;;;0.63;0.43;;;20.00;42.10;;;;;;8330906;28;20048;-46
2024/01/03 13:48:48;;;;;;;0.30;0.20;;;19.80;43.20;;;;;;8330772;28;20036;-45
2024/01/03 13:52:48;;;;;;;0.85;0.63;;;19.80;43.20;;;;;;8331044;28;20445;-45
2024/01/03 13:56:50;;;;;;;0.60;0.40;;;19.90;42.70;;;;;;8331167;28;20042;-46
2024/01/03 14:00:51;;;;;;;0.95;0.85;;;20.00;42.40;;;;;;8330637;28;20021;-44
2024/01/03 14:04:51;;;;;;;0.88;0.52;;;20.00;42.10;;;;;;8329966;28;20575;-45
2024/01/03 14:08:52;;;;;;;1.05;0.52;;;20.00;41.90;;;;;;8330088;28;20518;-47
2024/01/03 14:12:54;;;;;;;0.75;0.55;;;20.00;41.80;;;;;;8330097;28;20395;-44
2024/01/03 14:17:00;;;;;;;0.43;0.40;;;20.10;41.70;;;;;;8329834;28;20040;-46
2024/01/03 14:21:02;;;;;;;1.05;0.50;;;20.10;41.60;;;;;;8329922;28;20054;-45
2024/01/03 14:25:03;;;;;;;0.40;0.40;;;20.10;41.50;;;;;;8329680;28;20100;-44
2024/01/03 14:29:03;;;;;;;0.70;0.40;;;20.10;41.50;;;;;;8329543;28;20126;-45
2024/01/03 14:33:04;;;;;;;0.30;0.30;;;20.00;42.20;;;;;;8329444;28;20458;-44
2024/01/03 14:37:07;;;;;;;1.10;0.65;;;19.80;43.20;;;;;;8329601;28;20120;-44
2024/01/03 14:41:13;;;;;;;0.40;0.40;;;19.80;43.10;;;;;;8329094;28;20030;-45
2024/01/03 14:45:17;;;;;;;0.30;0.30;;;19.90;42.60;;;;;;8329167;28;20476;-46
2024/01/03 14:49:18;;;;;;;0.70;0.47;;;20.00;42.30;;;;;;8328916;28;20041;-45
2024/01/03 14:53:19;;;;;;;0.30;0.30;;;20.00;42.00;;;;;;8328173;28;20040;-44
2024/01/03 14:57:20;;;;;;;0.90;0.73;;;20.00;41.80;;;;;;8328604;28;20036;-45
2024/01/03 15:01:21;;;;;;;0.30;0.30;;;20.00;41.70;;;;;;8328848;28;20364;-45
2024/01/03 15:05:21;;;;;;;0.73;0.40;;;20.10;41.60;;;;;;8328620;28;20356;-45
2024/01/03 15:09:23;;;;;;;0.63;0.50;;;20.10;41.50;;;;;;8328492;28;20057;-42
2024/01/03 15:13:24;;;;;;;0.40;0.40;;;20.10;41.40;;;;;;8328208;28;20037;-42
2024/01/03 15:17:24;;;;;;;0.40;0.40;;;20.10;41.40;;;;;;8328189;28;20361;-43
2024/01/03 15:21:25;;;;;;;0.50;0.30;;;19.90;42.30;;;;;;8328020;28;20147;-44
2024/01/03 15:25:27;;;;;;;0.40;0.30;;;19.80;43.20;;;;;;8327863;28;20030;-42
2024/01/03 15:29:28;;;;;;;0.45;0.38;;;19.80;42.90;;;;;;8327785;28;20033;-44
2024/01/03 15:33:30;;;;;;;0.40;0.40;;;19.80;42.40;;;;;;8327921;28;20399;-43
2024/01/03 15:37:32;;;;;;;0.30;0.30;;;19.90;42.10;;;;;;8326307;28;20091;-43
2024/01/03 15:41:32;;;;;;;;;;;20.00;41.90;;;;;;8327893;28;20034;-44
2024/01/03 15:45:33;;;;;;;0.53;0.40;;;20.00;41.70;;;;;;8327234;28;19905;-46
2024/01/03 15:49:34;;;;;;;0.57;0.40;;;20.10;41.60;;;;;;8327861;28;20088;-44
2024/01/03 15:53:35;;;;;;;0.45;0.38;;;20.10;41.50;;;;;;8327409;28;20033;-43
2024/01/03 15:57:36;;;;;;;0.45;0.38;;;20.10;41.40;;;;;;8325970;28;20036;-43
2024/01/03 16:01:37;;;;;;;0.40;0.40;;;20.10;41.30;;;;;;8327203;28;20056;-43
2024/01/03 16:05:38;;;;;;;0.40;0.40;;;20.10;41.30;;;;;;8325343;28;20028;-44
2024/01/03 16:09:38;;;;;;;0.30;0.30;;;20.00;42.30;;;;;;8325541;28;20088;-43
2024/01/03 16:13:39;;;;;;;0.45;0.40;;;19.80;43.10;;;;;;8327068;28;20095;-47
2024/01/03 16:17:40;;;;;;;0.35;0.35;;;19.80;42.70;;;;;;8326548;28;20033;-43
2024/01/03 16:21:40;;;;;;;0.75;0.40;;;19.90;42.40;;;;;;8326563;28;20507;-45
2024/01/03 16:25:45;;;;;;;0.43;0.40;;;19.90;42.00;;;;;;8326490;28;20368;-45
2024/01/03 16:29:46;;;;;;;0.68;0.50;;;19.90;41.80;;;;;;8326405;28;20022;-45
2024/01/03 16:33:46;;;;;;;0.40;0.30;;;20.00;41.70;;;;;;8326339;28;20025;-45
2024/01/03 16:37:47;;;;;;;0.63;0.40;;;20.00;41.50;;;;;;8326475;28;20073;-45
2024/01/03 16:41:48;;;;;;;0.30;0.30;;;20.00;41.40;;;;;;8326045;28;20119;-44
2024/01/03 16:45:49;;;;;;;0.70;0.40;;;20.00;41.30;;;;;;8326285;28;20087;-45
2024/01/03 16:49:50;;;;;;;0.60;0.40;;;20.00;41.30;;;;;;8326065;28;20116;-45
2024/01/03 16:53:52;;;;;;;0.40;0.40;;;20.00;41.20;;;;;;8324898;28;20041;-48
2024/01/03 16:57:52;;;;;;;0.30;0.30;;;19.90;42.30;;;;;;8325981;28;20095;-45
2024/01/03 17:01:53;;;;;;;0.43;0.30;;;19.80;43.10;;;;;;8325651;28;20030;-46
2024/01/03 17:05:54;;;;;;;0.68;0.40;;;19.80;42.60;;;;;;8326154;28;20116;-46
2024/01/03 17:09:58;;;;;;;0.43;0.35;;;19.90;42.20;;;;;;8325906;28;20062;-46
2024/01/03 17:13:59;;;;;;;0.60;0.30;;;19.90;41.80;;;;;;8325675;28;20419;-46
2024/01/03 17:18:00;;;;;;;0.30;0.30;;;20.00;41.60;;;;;;8329590;28;20034;-45
2024/01/03 17:22:00;;;;;;;0.30;0.30;;;20.00;41.50;;;;;;8331521;28;20037;-46
2024/01/03 17:26:01;;;;;;;0.75;0.43;;;20.00;41.40;;;;;;8331577;28;20108;-46
2024/01/03 17:30:02;;;;;;;0.40;0.40;;;20.10;41.30;;;;;;8331588;28;20065;-45
2024/01/03 17:34:02;;;;;;;0.95;0.50;;;20.10;41.20;;;;;;8330023;28;20037;-44
2024/01/03 17:38:03;;;;;;;0.40;0.40;;;20.10;41.10;;;;;;8331297;28;20034;-46
2024/01/03 17:42:05;;;;;;;0.30;0.30;;;20.10;41.30;;;;;;8331053;28;20387;-44
2024/01/03 17:46:06;;;;;;;0.47;0.47;;;19.90;42.30;;;;;;8330725;28;20313;-45
2024/01/03 17:50:07;;;;;;;;;;;19.80;42.90;;;;;;8331205;28;20040;-46
2024/01/03 17:54:07;;;;;;;0.30;0.30;;;19.80;42.50;;;;;;8330892;28;19905;-46
2024/01/03 17:58:09;;;;;;;0.40;0.30;;;19.90;42.10;;;;;;8330236;28;20456;-46
2024/01/03 18:02:10;;;;;;;;;;;19.90;41.90;;;;;;8329600;28;20029;-45
2024/01/03 18:06:11;;;;;;;;;;;20.00;41.70;;;;;;8330584;28;20294;-46
2024/01/03 18:10:13;;;;;;;0.40;0.30;;;20.00;41.60;;;;;;8330577;28;19974;-45
2024/01/03 18:14:14;;;;;;;0.30;0.30;;;20.00;41.40;;;;;;8330194;28;20037;-47
2024/01/03 18:18:15;;;;;;;0.22;0.22;;;20.00;41.30;;;;;;8329704;28;20436;-45
2024/01/03 18:22:17;;;;;;;0.47;0.40;;;20.00;41.30;;;;;;8329803;28;20073;-45
2024/01/03 18:26:18;;;;;;;0.40;0.35;;;20.00;41.20;;;;;;8329731;28;20079;-46
2024/01/03 18:30:19;;;;;;;;;;;20.00;41.40;;;;;;8328618;28;20030;-45
2024/01/03 18:34:20;;;;;;;0.33;0.33;;;19.80;42.40;;;;;;8329470;28;20444;-45
2024/01/03 18:38:20;;;;;;;0.20;0.20;;;19.70;43.00;;;;;;8329252;28;20255;-45
2024/01/03 18:42:21;;;;;;;0.30;0.30;;;19.80;42.60;;;;;;8329003;28;20029;-45
2024/01/03 18:46:22;;;;;;;0.55;0.30;;;19.80;42.20;;;;;;8329053;28;20048;-44
2024/01/03 18:50:23;;;;;;;0.30;0.30;;;19.90;41.90;;;;;;8328832;28;20039;-43
2024/01/03 18:54:24;;;;;;;;;;;19.90;41.70;;;;;;8329061;28;20053;-47
2024/01/03 18:58:24;;;;;;;1.00;0.50;;;20.00;41.50;;;;;;8328574;28;19920;-48
2024/01/03 19:02:25;;;;;;;1.25;0.30;;;20.00;41.40;;;;;;8328358;28;20025;-48
2024/01/03 19:06:27;;;;;;;0.75;0.30;;;20.10;41.30;;;;;;8328253;28;20535;-48
2024/01/03 19:10:29;;;;;;;0.70;0.43;;;20.10;41.20;;;;;;8328224;28;20041;-47
2024/01/03 19:14:30;;;;;;;0.47;0.35;;;20.10;41.10;;;;;;8327899;28;20120;-47
2024/01/03 19:18:32;;;;;;;0.52;0.38;;;20.10;41.50;;;;;;8328022;28;20042;-46
2024/01/03 19:22:35;;;;;;;0.20;0.20;;;19.90;42.50;;;;;;8327836;28;20505;-47
2024/01/03 19:26:36;;;;;;;0.45;0.30;;;19.80;42.90;;;;;;8327527;28;20428;-48
2024/01/03 19:30:38;;;;;;;0.65;0.45;;;19.90;42.50;;;;;;8327507;28;20033;-48
2024/01/03 19:34:39;;;;;;;0.20;0.20;;;19.90;42.10;;;;;;8328033;28;20030;-48
2024/01/03 19:38:40;;;;;;;2.63;0.40;;;20.00;41.80;;;;;;8326600;28;20036;-47
2024/01/03 19:42:40;;;;;;;0.25;0.25;;;20.00;41.60;;;;;;8327416;28;20109;-47
2024/01/03 19:46:42;;;;;;;0.35;0.30;;;20.00;41.40;;;;;;8327152;28;20046;-48
2024/01/03 19:50:43;;;;;;;0.10;0.10;;;20.00;41.30;;;;;;8326960;28;20064;-44
2024/01/03 19:54:44;;;;;;;0.98;0.40;;;20.00;41.20;;;;;;8327073;28;20048;-45
2024/01/03 19:58:45;;;;;;;0.28;0.28;;;20.10;41.10;;;;;;8327033;28;20037;-45
2024/01/03 20:02:45;;;;;;;;;;;20.10;41.10;;;;;;8327412;28;20061;-44
2024/01/03 20:06:46;;;;;;;0.30;0.30;;;20.00;41.40;;;;;;8326480;28;19921;-45
2024/01/03 20:10:47;;;;;;;0.30;0.30;;;19.90;42.50;;;;;;8326881;28;20033;-45
2024/01/03 20:14:48;;;;;;;0.43;0.43;;;19.70;42.80;;;;;;8325439;28;20033;-45
2024/01/03 20:18:50;;;;;;;0.30;0.30;;;19.80;42.40;;;;;;8325414;28;20038;-46
2024/01/03 20:22:53;;;;;;;1.58;0.40;;;19.90;42.00;;;;;;8326838;28;20060;-46
2024/01/03 20:26:54;;;;;;;0.30;0.30;;;20.00;41.70;;;;;;8326389;28;20091;-46
2024/01/03 20:30:55;;;;;;;;;;;20.00;41.50;;;;;;8326811;28;20108;-46
2024/01/03 20:34:55;;;;;;;0.40;0.40;;;20.00;41.30;;;;;;8326641;28;19917;-47
2024/01/03 20:39:00;;;;;;;0.60;0.50;;;20.10;41.30;;;;;;8326385;28;20430;-45
2024/01/03 20:43:02;;;;;;;0.30;0.30;;;20.10;41.10;;;;;;8326233;28;20395;-45
2024/01/03 20:47:03;;;;;;;0.28;0.28;;;20.10;41.10;;;;;;8326466;28;20030;-45
2024/01/03 20:51:04;;;;;;;0.30;0.30;;;20.10;41.00;;;;;;8327159;28;20037;-45
2024/01/03 20:55:05;;;;;;;0.30;0.30;;;20.00;41.50;;;;;;8332536;28;20029;-45
2024/01/03 20:59:05;;;;;;;0.20;0.20;;;19.90;42.50;;;;;;8332389;28;20037;-45
2024/01/03 21:03:06;;;;;;;0.45;0.30;;;19.80;42.60;;;;;;8333236;28;20018;-43